WLE weather

Miles Airport
Queensland, Australia

Public forecast

Using degrees Celsius for public forecast. Weather courtesy of forecast.io.

METAR (pilot weather report)

Closest report is Kingaroy Airport, 90.4 nm (167.4 km) E. Retrieved 2019/03/25 23:05 UTC (35 minutes ago):

YKRY 252305Z AUTO 31005KT 9999 // BKN020 24/20 Q1018

TAF (pilot weather forecast)

Closest forecast is RAAF Base Amberley, 144.4 nm (267.4 km) ESE. Retrieved 2019/03/25 18:00 UTC (6 hours ago):

TAF YAMB 251706Z 2518/2612 VRB02KT 9999 FEW030 SCT140 FM252100 30004KT 9999 FEW035 SCT100 FM260200 24007KT 9999 FEW050 SCT120 FM260500 20007KT 9999 -RA SCT020 BKN120 INTER 2606/2612 4000 -RA -SHRA BKN010 SCT050 BKN100